sensor_id;sensor_type;location;lat;lon;timestamp;P1;durP1;ratioP1;P2;durP2;ratioP2
63434;SDS011;68814;50.872;5.306;2023-04-30T00:00:12;22.67;;;16.00;;
63434;SDS011;68814;50.872;5.306;2023-04-30T00:02:38;24.80;;;16.73;;
63434;SDS011;68814;50.872;5.306;2023-04-30T00:05:04;25.50;;;17.40;;
63434;SDS011;68814;50.872;5.306;2023-04-30T00:07:29;27.67;;;18.08;;
63434;SDS011;68814;50.872;5.306;2023-04-30T00:09:56;25.75;;;16.23;;
63434;SDS011;68814;50.872;5.306;2023-04-30T00:12:22;25.35;;;16.42;;
63434;SDS011;68814;50.872;5.306;2023-04-30T00:14:47;20.52;;;15.77;;
63434;SDS011;68814;50.872;5.306;2023-04-30T00:17:13;23.08;;;15.77;;
63434;SDS011;68814;50.872;5.306;2023-04-30T00:19:40;21.27;;;15.52;;
63434;SDS011;68814;50.872;5.306;2023-04-30T00:22:06;22.95;;;15.60;;
63434;SDS011;68814;50.872;5.306;2023-04-30T00:24:32;23.80;;;16.00;;
63434;SDS011;68814;50.872;5.306;2023-04-30T00:26:57;24.73;;;14.38;;
63434;SDS011;68814;50.872;5.306;2023-04-30T00:29:23;21.60;;;14.15;;
63434;SDS011;68814;50.872;5.306;2023-04-30T00:31:49;20.35;;;13.60;;
63434;SDS011;68814;50.872;5.306;2023-04-30T00:34:14;23.63;;;14.57;;
63434;SDS011;68814;50.872;5.306;2023-04-30T00:36:40;20.73;;;14.95;;
63434;SDS011;68814;50.872;5.306;2023-04-30T00:39:06;23.15;;;16.27;;
63434;SDS011;68814;50.872;5.306;2023-04-30T00:41:31;25.88;;;14.70;;
63434;SDS011;68814;50.872;5.306;2023-04-30T00:43:59;26.17;;;16.33;;
63434;SDS011;68814;50.872;5.306;2023-04-30T00:46:26;26.88;;;16.83;;
63434;SDS011;68814;50.872;5.306;2023-04-30T00:48:52;24.08;;;15.50;;
63434;SDS011;68814;50.872;5.306;2023-04-30T00:51:18;25.17;;;15.68;;
63434;SDS011;68814;50.872;5.306;2023-04-30T00:53:45;25.08;;;16.42;;
63434;SDS011;68814;50.872;5.306;2023-04-30T00:56:11;24.90;;;15.27;;
63434;SDS011;68814;50.872;5.306;2023-04-30T00:58:40;25.08;;;15.70;;
63434;SDS011;68814;50.872;5.306;2023-04-30T01:01:06;23.23;;;15.13;;
63434;SDS011;68814;50.872;5.306;2023-04-30T01:03:32;24.30;;;15.05;;
63434;SDS011;68814;50.872;5.306;2023-04-30T01:06:00;26.42;;;15.30;;
63434;SDS011;68814;50.872;5.306;2023-04-30T01:08:27;23.42;;;14.85;;
63434;SDS011;68814;50.872;5.306;2023-04-30T01:11:06;24.60;;;14.82;;
63434;SDS011;68814;50.872;5.306;2023-04-30T01:16:32;23.88;;;15.40;;
63434;SDS011;68814;50.872;5.306;2023-04-30T01:21:55;24.45;;;16.45;;
63434;SDS011;68814;50.872;5.306;2023-04-30T01:29:40;26.25;;;16.50;;
63434;SDS011;68814;50.872;5.306;2023-04-30T01:32:08;24.38;;;15.05;;
63434;SDS011;68814;50.872;5.306;2023-04-30T01:34:35;20.00;;;12.93;;
63434;SDS011;68814;50.872;5.306;2023-04-30T01:37:37;21.40;;;12.73;;
63434;SDS011;68814;50.872;5.306;2023-04-30T01:50:48;21.20;;;13.30;;
63434;SDS011;68814;50.872;5.306;2023-04-30T01:53:23;21.73;;;12.95;;
63434;SDS011;68814;50.872;5.306;2023-04-30T01:56:02;23.48;;;14.50;;
63434;SDS011;68814;50.872;5.306;2023-04-30T01:58:30;21.02;;;13.00;;
63434;SDS011;68814;50.872;5.306;2023-04-30T02:00:56;23.60;;;13.95;;
63434;SDS011;68814;50.872;5.306;2023-04-30T02:03:22;22.67;;;13.73;;
63434;SDS011;68814;50.872;5.306;2023-04-30T02:05:49;20.45;;;13.35;;
63434;SDS011;68814;50.872;5.306;2023-04-30T02:08:15;20.17;;;12.43;;
63434;SDS011;68814;50.872;5.306;2023-04-30T02:10:41;21.17;;;12.77;;
63434;SDS011;68814;50.872;5.306;2023-04-30T02:13:06;19.08;;;12.68;;
63434;SDS011;68814;50.872;5.306;2023-04-30T02:15:32;19.77;;;10.90;;
63434;SDS011;68814;50.872;5.306;2023-04-30T02:17:58;20.17;;;12.02;;
63434;SDS011;68814;50.872;5.306;2023-04-30T02:20:23;20.95;;;11.27;;
63434;SDS011;68814;50.872;5.306;2023-04-30T02:22:49;17.00;;;10.85;;
63434;SDS011;68814;50.872;5.306;2023-04-30T02:25:15;18.73;;;10.95;;
63434;SDS011;68814;50.872;5.306;2023-04-30T02:27:41;19.33;;;11.55;;
63434;SDS011;68814;50.872;5.306;2023-04-30T02:30:07;20.73;;;11.95;;
63434;SDS011;68814;50.872;5.306;2023-04-30T02:32:32;19.25;;;11.40;;
63434;SDS011;68814;50.872;5.306;2023-04-30T02:34:58;17.13;;;11.90;;
63434;SDS011;68814;50.872;5.306;2023-04-30T02:37:24;20.60;;;11.75;;
63434;SDS011;68814;50.872;5.306;2023-04-30T02:39:50;19.20;;;11.75;;
63434;SDS011;68814;50.872;5.306;2023-04-30T02:42:17;21.67;;;11.88;;
63434;SDS011;68814;50.872;5.306;2023-04-30T02:44:43;19.77;;;12.38;;
63434;SDS011;68814;50.872;5.306;2023-04-30T02:47:09;19.58;;;11.40;;
63434;SDS011;68814;50.872;5.306;2023-04-30T02:49:34;21.88;;;12.63;;
63434;SDS011;68814;50.872;5.306;2023-04-30T02:52:00;20.13;;;13.15;;
63434;SDS011;68814;50.872;5.306;2023-04-30T02:54:26;21.52;;;11.50;;
63434;SDS011;68814;50.872;5.306;2023-04-30T02:56:52;18.20;;;11.18;;
63434;SDS011;68814;50.872;5.306;2023-04-30T02:59:17;17.17;;;11.23;;
63434;SDS011;68814;50.872;5.306;2023-04-30T03:01:43;15.50;;;9.15;;
63434;SDS011;68814;50.872;5.306;2023-04-30T03:04:09;14.40;;;9.20;;
63434;SDS011;68814;50.872;5.306;2023-04-30T03:06:35;16.73;;;9.65;;
63434;SDS011;68814;50.872;5.306;2023-04-30T03:09:00;17.65;;;11.20;;
63434;SDS011;68814;50.872;5.306;2023-04-30T03:11:26;14.85;;;9.52;;
63434;SDS011;68814;50.872;5.306;2023-04-30T03:13:52;21.70;;;12.13;;
63434;SDS011;68814;50.872;5.306;2023-04-30T03:16:18;17.52;;;10.60;;
63434;SDS011;68814;50.872;5.306;2023-04-30T03:18:45;21.85;;;11.02;;
63434;SDS011;68814;50.872;5.306;2023-04-30T03:21:11;19.40;;;11.25;;
63434;SDS011;68814;50.872;5.306;2023-04-30T03:23:37;18.55;;;11.32;;
63434;SDS011;68814;50.872;5.306;2023-04-30T03:26:03;17.23;;;11.00;;
63434;SDS011;68814;50.872;5.306;2023-04-30T03:28:28;18.00;;;10.38;;
63434;SDS011;68814;50.872;5.306;2023-04-30T03:30:54;18.50;;;10.82;;
63434;SDS011;68814;50.872;5.306;2023-04-30T03:33:19;23.67;;;11.18;;
63434;SDS011;68814;50.872;5.306;2023-04-30T03:35:45;20.35;;;11.30;;
63434;SDS011;68814;50.872;5.306;2023-04-30T03:38:11;17.95;;;10.38;;
63434;SDS011;68814;50.872;5.306;2023-04-30T03:40:37;16.50;;;10.10;;
63434;SDS011;68814;50.872;5.306;2023-04-30T03:43:02;18.38;;;10.25;;
63434;SDS011;68814;50.872;5.306;2023-04-30T03:45:28;20.25;;;11.02;;
63434;SDS011;68814;50.872;5.306;2023-04-30T03:47:54;14.75;;;9.40;;
63434;SDS011;68814;50.872;5.306;2023-04-30T03:50:20;22.08;;;11.25;;
63434;SDS011;68814;50.872;5.306;2023-04-30T03:52:45;18.73;;;10.20;;
63434;SDS011;68814;50.872;5.306;2023-04-30T03:55:11;15.73;;;10.13;;
63434;SDS011;68814;50.872;5.306;2023-04-30T03:57:37;16.80;;;10.35;;
63434;SDS011;68814;50.872;5.306;2023-04-30T04:00:05;17.33;;;9.57;;
63434;SDS011;68814;50.872;5.306;2023-04-30T04:02:31;17.42;;;10.18;;
63434;SDS011;68814;50.872;5.306;2023-04-30T04:04:58;18.08;;;10.05;;
63434;SDS011;68814;50.872;5.306;2023-04-30T04:07:24;17.38;;;10.60;;
63434;SDS011;68814;50.872;5.306;2023-04-30T04:09:49;18.55;;;10.30;;
63434;SDS011;68814;50.872;5.306;2023-04-30T04:12:15;16.23;;;10.45;;
63434;SDS011;68814;50.872;5.306;2023-04-30T04:14:41;16.80;;;9.95;;
63434;SDS011;68814;50.872;5.306;2023-04-30T04:17:06;20.42;;;11.23;;
63434;SDS011;68814;50.872;5.306;2023-04-30T04:19:32;15.93;;;10.00;;
63434;SDS011;68814;50.872;5.306;2023-04-30T04:21:58;19.23;;;11.25;;
63434;SDS011;68814;50.872;5.306;2023-04-30T04:24:24;23.33;;;13.80;;
63434;SDS011;68814;50.872;5.306;2023-04-30T04:26:50;28.35;;;14.48;;
63434;SDS011;68814;50.872;5.306;2023-04-30T04:29:16;31.17;;;15.93;;
63434;SDS011;68814;50.872;5.306;2023-04-30T04:31:42;38.38;;;18.02;;
63434;SDS011;68814;50.872;5.306;2023-04-30T04:34:07;40.42;;;19.98;;
63434;SDS011;68814;50.872;5.306;2023-04-30T04:36:33;34.53;;;18.27;;
63434;SDS011;68814;50.872;5.306;2023-04-30T04:38:59;30.83;;;17.33;;
63434;SDS011;68814;50.872;5.306;2023-04-30T04:41:28;28.98;;;16.05;;
63434;SDS011;68814;50.872;5.306;2023-04-30T04:43:57;26.02;;;13.65;;
63434;SDS011;68814;50.872;5.306;2023-04-30T04:46:27;25.77;;;15.10;;
63434;SDS011;68814;50.872;5.306;2023-04-30T04:48:54;26.20;;;15.48;;
63434;SDS011;68814;50.872;5.306;2023-04-30T04:51:20;28.25;;;14.45;;
63434;SDS011;68814;50.872;5.306;2023-04-30T04:53:45;22.90;;;14.25;;
63434;SDS011;68814;50.872;5.306;2023-04-30T04:56:11;23.88;;;14.18;;
63434;SDS011;68814;50.872;5.306;2023-04-30T04:58:37;22.77;;;13.57;;
63434;SDS011;68814;50.872;5.306;2023-04-30T05:01:03;22.35;;;13.38;;
63434;SDS011;68814;50.872;5.306;2023-04-30T05:03:30;21.80;;;13.35;;
63434;SDS011;68814;50.872;5.306;2023-04-30T05:05:57;22.77;;;13.73;;
63434;SDS011;68814;50.872;5.306;2023-04-30T05:08:23;23.05;;;14.43;;
63434;SDS011;68814;50.872;5.306;2023-04-30T05:10:49;23.63;;;13.90;;
63434;SDS011;68814;50.872;5.306;2023-04-30T05:13:15;23.65;;;14.38;;
63434;SDS011;68814;50.872;5.306;2023-04-30T05:15:40;29.60;;;15.80;;
63434;SDS011;68814;50.872;5.306;2023-04-30T05:18:06;38.80;;;16.80;;
63434;SDS011;68814;50.872;5.306;2023-04-30T05:20:32;32.40;;;18.50;;
63434;SDS011;68814;50.872;5.306;2023-04-30T05:22:58;28.05;;;16.52;;
63434;SDS011;68814;50.872;5.306;2023-04-30T05:25:23;33.10;;;17.25;;
63434;SDS011;68814;50.872;5.306;2023-04-30T05:27:49;32.63;;;17.92;;
63434;SDS011;68814;50.872;5.306;2023-04-30T05:30:15;37.42;;;19.52;;
63434;SDS011;68814;50.872;5.306;2023-04-30T05:32:41;36.95;;;19.50;;
63434;SDS011;68814;50.872;5.306;2023-04-30T05:35:07;39.45;;;21.73;;
63434;SDS011;68814;50.872;5.306;2023-04-30T05:37:33;37.78;;;21.58;;
63434;SDS011;68814;50.872;5.306;2023-04-30T05:39:59;47.45;;;23.25;;
63434;SDS011;68814;50.872;5.306;2023-04-30T05:42:25;50.38;;;24.90;;
63434;SDS011;68814;50.872;5.306;2023-04-30T05:44:50;40.65;;;22.30;;
63434;SDS011;68814;50.872;5.306;2023-04-30T05:47:16;45.28;;;24.52;;
63434;SDS011;68814;50.872;5.306;2023-04-30T05:49:42;52.10;;;28.20;;
63434;SDS011;68814;50.872;5.306;2023-04-30T05:52:08;57.78;;;29.55;;
63434;SDS011;68814;50.872;5.306;2023-04-30T05:54:33;53.60;;;29.90;;
63434;SDS011;68814;50.872;5.306;2023-04-30T05:56:59;61.28;;;32.10;;
63434;SDS011;68814;50.872;5.306;2023-04-30T05:59:25;56.13;;;32.35;;
63434;SDS011;68814;50.872;5.306;2023-04-30T06:01:51;55.53;;;30.80;;
63434;SDS011;68814;50.872;5.306;2023-04-30T06:04:17;61.10;;;32.35;;
63434;SDS011;68814;50.872;5.306;2023-04-30T06:06:42;55.83;;;30.77;;
63434;SDS011;68814;50.872;5.306;2023-04-30T06:09:08;51.97;;;30.75;;
63434;SDS011;68814;50.872;5.306;2023-04-30T06:11:40;53.97;;;30.55;;
63434;SDS011;68814;50.872;5.306;2023-04-30T06:14:06;56.08;;;30.88;;
63434;SDS011;68814;50.872;5.306;2023-04-30T06:16:31;51.33;;;29.45;;
63434;SDS011;68814;50.872;5.306;2023-04-30T06:18:57;48.17;;;28.85;;
63434;SDS011;68814;50.872;5.306;2023-04-30T06:21:23;50.00;;;30.05;;
63434;SDS011;68814;50.872;5.306;2023-04-30T06:23:50;47.03;;;29.08;;
63434;SDS011;68814;50.872;5.306;2023-04-30T06:26:17;54.33;;;31.17;;
63434;SDS011;68814;50.872;5.306;2023-04-30T06:28:43;52.95;;;31.58;;
63434;SDS011;68814;50.872;5.306;2023-04-30T06:31:10;48.13;;;28.30;;
63434;SDS011;68814;50.872;5.306;2023-04-30T06:33:36;46.65;;;28.60;;
63434;SDS011;68814;50.872;5.306;2023-04-30T06:36:01;46.55;;;29.13;;
63434;SDS011;68814;50.872;5.306;2023-04-30T06:38:27;48.50;;;28.75;;
63434;SDS011;68814;50.872;5.306;2023-04-30T06:40:53;43.15;;;25.55;;
63434;SDS011;68814;50.872;5.306;2023-04-30T06:43:19;44.67;;;27.58;;
63434;SDS011;68814;50.872;5.306;2023-04-30T06:45:45;46.28;;;27.55;;
63434;SDS011;68814;50.872;5.306;2023-04-30T06:48:10;37.50;;;25.15;;
63434;SDS011;68814;50.872;5.306;2023-04-30T06:50:36;41.00;;;25.77;;
63434;SDS011;68814;50.872;5.306;2023-04-30T06:53:08;44.95;;;26.10;;
63434;SDS011;68814;50.872;5.306;2023-04-30T06:55:35;42.13;;;26.55;;
63434;SDS011;68814;50.872;5.306;2023-04-30T06:58:01;45.28;;;26.30;;
63434;SDS011;68814;50.872;5.306;2023-04-30T07:00:26;41.40;;;24.23;;
63434;SDS011;68814;50.872;5.306;2023-04-30T07:02:52;38.85;;;25.52;;
63434;SDS011;68814;50.872;5.306;2023-04-30T07:05:18;44.35;;;26.80;;
63434;SDS011;68814;50.872;5.306;2023-04-30T07:07:43;40.85;;;24.98;;
63434;SDS011;68814;50.872;5.306;2023-04-30T07:10:10;37.55;;;25.35;;
63434;SDS011;68814;50.872;5.306;2023-04-30T07:12:37;39.35;;;25.33;;
63434;SDS011;68814;50.872;5.306;2023-04-30T07:15:05;43.35;;;28.95;;
63434;SDS011;68814;50.872;5.306;2023-04-30T07:17:32;41.03;;;26.35;;
63434;SDS011;68814;50.872;5.306;2023-04-30T07:19:58;43.17;;;26.50;;
63434;SDS011;68814;50.872;5.306;2023-04-30T07:22:24;42.20;;;27.83;;
63434;SDS011;68814;50.872;5.306;2023-04-30T07:24:49;39.67;;;25.65;;
63434;SDS011;68814;50.872;5.306;2023-04-30T07:27:15;36.20;;;25.00;;
63434;SDS011;68814;50.872;5.306;2023-04-30T07:42:43;37.75;;;23.80;;
63434;SDS011;68814;50.872;5.306;2023-04-30T07:47:47;33.75;;;22.33;;
63434;SDS011;68814;50.872;5.306;2023-04-30T07:50:12;38.33;;;21.98;;
63434;SDS011;68814;50.872;5.306;2023-04-30T07:52:39;33.67;;;21.83;;
63434;SDS011;68814;50.872;5.306;2023-04-30T07:55:11;34.08;;;22.45;;
63434;SDS011;68814;50.872;5.306;2023-04-30T07:57:37;37.05;;;22.63;;
63434;SDS011;68814;50.872;5.306;2023-04-30T08:02:41;31.52;;;20.60;;
63434;SDS011;68814;50.872;5.306;2023-04-30T08:05:10;29.25;;;20.00;;
63434;SDS011;68814;50.872;5.306;2023-04-30T08:10:11;31.77;;;20.13;;
63434;SDS011;68814;50.872;5.306;2023-04-30T08:15:32;30.10;;;19.75;;
63434;SDS011;68814;50.872;5.306;2023-04-30T08:17:59;22.48;;;17.77;;
63434;SDS011;68814;50.872;5.306;2023-04-30T08:26:40;27.55;;;19.40;;
63434;SDS011;68814;50.872;5.306;2023-04-30T08:29:06;28.52;;;18.88;;
63434;SDS011;68814;50.872;5.306;2023-04-30T08:31:36;26.38;;;17.83;;
63434;SDS011;68814;50.872;5.306;2023-04-30T08:34:02;26.83;;;18.63;;
63434;SDS011;68814;50.872;5.306;2023-04-30T08:36:28;24.65;;;17.90;;
63434;SDS011;68814;50.872;5.306;2023-04-30T08:38:54;25.98;;;17.52;;
63434;SDS011;68814;50.872;5.306;2023-04-30T08:41:24;24.77;;;16.75;;
63434;SDS011;68814;50.872;5.306;2023-04-30T08:43:54;22.30;;;15.65;;
63434;SDS011;68814;50.872;5.306;2023-04-30T08:46:27;22.00;;;15.38;;
63434;SDS011;68814;50.872;5.306;2023-04-30T08:48:59;21.27;;;15.00;;
63434;SDS011;68814;50.872;5.306;2023-04-30T08:51:25;21.60;;;15.35;;
63434;SDS011;68814;50.872;5.306;2023-04-30T08:53:52;18.30;;;12.48;;
63434;SDS011;68814;50.872;5.306;2023-04-30T08:56:24;19.73;;;13.30;;
63434;SDS011;68814;50.872;5.306;2023-04-30T08:58:50;19.27;;;13.07;;
63434;SDS011;68814;50.872;5.306;2023-04-30T09:01:17;18.30;;;13.30;;
63434;SDS011;68814;50.872;5.306;2023-04-30T09:03:43;18.08;;;12.68;;
63434;SDS011;68814;50.872;5.306;2023-04-30T09:06:16;18.05;;;11.73;;
63434;SDS011;68814;50.872;5.306;2023-04-30T09:08:42;17.63;;;11.02;;
63434;SDS011;68814;50.872;5.306;2023-04-30T09:11:24;18.30;;;12.90;;
63434;SDS011;68814;50.872;5.306;2023-04-30T09:13:58;16.15;;;12.15;;
63434;SDS011;68814;50.872;5.306;2023-04-30T09:16:26;15.85;;;9.85;;
63434;SDS011;68814;50.872;5.306;2023-04-30T09:18:57;15.30;;;10.88;;
63434;SDS011;68814;50.872;5.306;2023-04-30T09:21:33;17.85;;;11.35;;
63434;SDS011;68814;50.872;5.306;2023-04-30T09:24:00;20.70;;;11.73;;
63434;SDS011;68814;50.872;5.306;2023-04-30T09:26:37;16.67;;;10.70;;
63434;SDS011;68814;50.872;5.306;2023-04-30T09:29:03;15.50;;;9.80;;
63434;SDS011;68814;50.872;5.306;2023-04-30T09:31:34;9.57;;;8.23;;
63434;SDS011;68814;50.872;5.306;2023-04-30T09:34:01;12.07;;;9.93;;
63434;SDS011;68814;50.872;5.306;2023-04-30T09:36:27;13.77;;;9.02;;
63434;SDS011;68814;50.872;5.306;2023-04-30T09:38:54;17.23;;;9.27;;
63434;SDS011;68814;50.872;5.306;2023-04-30T09:41:20;9.98;;;6.78;;
63434;SDS011;68814;50.872;5.306;2023-04-30T09:43:48;10.18;;;6.40;;
63434;SDS011;68814;50.872;5.306;2023-04-30T09:46:14;9.55;;;6.95;;
63434;SDS011;68814;50.872;5.306;2023-04-30T09:48:43;8.57;;;7.07;;
63434;SDS011;68814;50.872;5.306;2023-04-30T09:51:09;9.68;;;6.80;;
63434;SDS011;68814;50.872;5.306;2023-04-30T09:53:38;10.25;;;6.47;;
63434;SDS011;68814;50.872;5.306;2023-04-30T09:56:07;7.95;;;6.20;;
63434;SDS011;68814;50.872;5.306;2023-04-30T09:58:35;10.13;;;6.55;;
63434;SDS011;68814;50.872;5.306;2023-04-30T10:01:05;11.07;;;6.03;;
63434;SDS011;68814;50.872;5.306;2023-04-30T10:03:35;8.07;;;6.40;;
63434;SDS011;68814;50.872;5.306;2023-04-30T10:06:04;8.07;;;4.85;;
63434;SDS011;68814;50.872;5.306;2023-04-30T10:08:41;8.18;;;4.75;;
63434;SDS011;68814;50.872;5.306;2023-04-30T10:11:09;8.23;;;4.30;;
63434;SDS011;68814;50.872;5.306;2023-04-30T10:13:59;6.78;;;5.57;;
63434;SDS011;68814;50.872;5.306;2023-04-30T10:19:27;9.27;;;6.97;;
63434;SDS011;68814;50.872;5.306;2023-04-30T10:21:56;10.25;;;6.63;;
63434;SDS011;68814;50.872;5.306;2023-04-30T10:24:22;8.13;;;5.97;;
63434;SDS011;68814;50.872;5.306;2023-04-30T10:26:48;7.60;;;5.70;;
63434;SDS011;68814;50.872;5.306;2023-04-30T10:29:15;7.60;;;5.53;;
63434;SDS011;68814;50.872;5.306;2023-04-30T10:31:42;8.30;;;5.75;;
63434;SDS011;68814;50.872;5.306;2023-04-30T10:34:16;6.80;;;5.45;;
63434;SDS011;68814;50.872;5.306;2023-04-30T10:37:00;9.05;;;6.72;;
63434;SDS011;68814;50.872;5.306;2023-04-30T10:39:31;8.35;;;5.72;;
63434;SDS011;68814;50.872;5.306;2023-04-30T10:42:00;8.27;;;5.85;;
63434;SDS011;68814;50.872;5.306;2023-04-30T10:44:28;5.13;;;4.43;;
63434;SDS011;68814;50.872;5.306;2023-04-30T10:47:00;7.03;;;4.80;;
63434;SDS011;68814;50.872;5.306;2023-04-30T10:49:27;7.57;;;5.13;;
63434;SDS011;68814;50.872;5.306;2023-04-30T10:51:53;6.38;;;4.55;;
63434;SDS011;68814;50.872;5.306;2023-04-30T10:54:23;6.22;;;4.18;;
63434;SDS011;68814;50.872;5.306;2023-04-30T10:56:51;7.00;;;3.97;;
63434;SDS011;68814;50.872;5.306;2023-04-30T10:59:17;7.38;;;4.43;;
63434;SDS011;68814;50.872;5.306;2023-04-30T11:02:02;5.32;;;3.33;;
63434;SDS011;68814;50.872;5.306;2023-04-30T11:04:28;3.20;;;2.38;;
63434;SDS011;68814;50.872;5.306;2023-04-30T11:07:00;9.35;;;4.60;;
63434;SDS011;68814;50.872;5.306;2023-04-30T11:09:38;5.65;;;4.13;;
63434;SDS011;68814;50.872;5.306;2023-04-30T11:12:12;5.18;;;3.95;;
63434;SDS011;68814;50.872;5.306;2023-04-30T11:14:40;4.50;;;4.05;;
63434;SDS011;68814;50.872;5.306;2023-04-30T11:17:08;4.97;;;4.15;;
63434;SDS011;68814;50.872;5.306;2023-04-30T11:19:47;4.88;;;3.30;;
63434;SDS011;68814;50.872;5.306;2023-04-30T11:22:15;13.90;;;4.30;;
63434;SDS011;68814;50.872;5.306;2023-04-30T11:24:51;4.10;;;3.08;;
63434;SDS011;68814;50.872;5.306;2023-04-30T11:27:24;5.63;;;3.70;;
63434;SDS011;68814;50.872;5.306;2023-04-30T11:29:54;4.03;;;3.15;;
63434;SDS011;68814;50.872;5.306;2023-04-30T11:32:21;3.88;;;2.85;;
63434;SDS011;68814;50.872;5.306;2023-04-30T11:34:48;7.70;;;3.72;;
63434;SDS011;68814;50.872;5.306;2023-04-30T11:37:18;4.18;;;2.50;;
63434;SDS011;68814;50.872;5.306;2023-04-30T11:39:46;3.60;;;2.63;;
63434;SDS011;68814;50.872;5.306;2023-04-30T11:42:19;4.05;;;2.65;;
63434;SDS011;68814;50.872;5.306;2023-04-30T11:44:45;3.15;;;2.85;;
63434;SDS011;68814;50.872;5.306;2023-04-30T11:47:14;3.58;;;2.33;;
63434;SDS011;68814;50.872;5.306;2023-04-30T11:49:39;4.03;;;1.98;;
63434;SDS011;68814;50.872;5.306;2023-04-30T11:52:08;4.55;;;3.05;;
63434;SDS011;68814;50.872;5.306;2023-04-30T11:54:35;3.67;;;3.08;;
63434;SDS011;68814;50.872;5.306;2023-04-30T11:57:02;6.53;;;3.50;;
63434;SDS011;68814;50.872;5.306;2023-04-30T11:59:31;8.02;;;2.97;;
63434;SDS011;68814;50.872;5.306;2023-04-30T12:02:06;4.18;;;2.53;;
63434;SDS011;68814;50.872;5.306;2023-04-30T12:04:31;2.85;;;1.90;;
63434;SDS011;68814;50.872;5.306;2023-04-30T12:06:58;5.10;;;2.35;;
63434;SDS011;68814;50.872;5.306;2023-04-30T12:09:24;5.53;;;2.38;;
63434;SDS011;68814;50.872;5.306;2023-04-30T12:11:50;62.53;;;6.90;;
63434;SDS011;68814;50.872;5.306;2023-04-30T12:14:16;4.75;;;1.80;;
63434;SDS011;68814;50.872;5.306;2023-04-30T12:16:48;2.10;;;1.77;;
63434;SDS011;68814;50.872;5.306;2023-04-30T12:19:17;3.40;;;1.58;;
63434;SDS011;68814;50.872;5.306;2023-04-30T12:21:44;4.10;;;1.73;;
63434;SDS011;68814;50.872;5.306;2023-04-30T12:24:12;2.78;;;2.30;;
63434;SDS011;68814;50.872;5.306;2023-04-30T12:26:42;6.05;;;2.75;;
63434;SDS011;68814;50.872;5.306;2023-04-30T12:29:08;3.75;;;2.60;;
63434;SDS011;68814;50.872;5.306;2023-04-30T12:31:41;4.05;;;1.95;;
63434;SDS011;68814;50.872;5.306;2023-04-30T12:34:09;4.63;;;2.05;;
63434;SDS011;68814;50.872;5.306;2023-04-30T12:36:39;4.03;;;2.05;;
63434;SDS011;68814;50.872;5.306;2023-04-30T12:39:09;4.40;;;2.13;;
63434;SDS011;68814;50.872;5.306;2023-04-30T12:41:44;2.90;;;1.20;;
63434;SDS011;68814;50.872;5.306;2023-04-30T12:46:43;2.88;;;1.65;;
63434;SDS011;68814;50.872;5.306;2023-04-30T12:49:10;3.15;;;1.92;;
63434;SDS011;68814;50.872;5.306;2023-04-30T12:51:36;2.65;;;1.80;;
63434;SDS011;68814;50.872;5.306;2023-04-30T12:54:05;3.08;;;1.83;;
63434;SDS011;68814;50.872;5.306;2023-04-30T12:56:31;3.85;;;1.48;;
63434;SDS011;68814;50.872;5.306;2023-04-30T12:58:56;3.67;;;1.55;;
63434;SDS011;68814;50.872;5.306;2023-04-30T13:01:22;1.90;;;1.13;;
63434;SDS011;68814;50.872;5.306;2023-04-30T13:03:49;2.92;;;1.38;;
63434;SDS011;68814;50.872;5.306;2023-04-30T13:06:16;3.58;;;2.03;;
63434;SDS011;68814;50.872;5.306;2023-04-30T13:08:43;1.67;;;1.15;;
63434;SDS011;68814;50.872;5.306;2023-04-30T13:11:09;2.50;;;1.52;;
63434;SDS011;68814;50.872;5.306;2023-04-30T13:13:35;1.33;;;0.93;;
63434;SDS011;68814;50.872;5.306;2023-04-30T13:16:01;4.50;;;1.00;;
63434;SDS011;68814;50.872;5.306;2023-04-30T13:18:26;2.28;;;1.35;;
63434;SDS011;68814;50.872;5.306;2023-04-30T13:20:52;5.00;;;1.95;;
63434;SDS011;68814;50.872;5.306;2023-04-30T13:23:18;1.75;;;0.98;;
63434;SDS011;68814;50.872;5.306;2023-04-30T13:25:44;3.55;;;1.35;;
63434;SDS011;68814;50.872;5.306;2023-04-30T13:28:10;2.03;;;1.30;;
63434;SDS011;68814;50.872;5.306;2023-04-30T13:30:36;1.13;;;0.70;;
63434;SDS011;68814;50.872;5.306;2023-04-30T13:33:02;1.02;;;0.95;;
63434;SDS011;68814;50.872;5.306;2023-04-30T13:35:28;1.15;;;1.00;;
63434;SDS011;68814;50.872;5.306;2023-04-30T13:37:54;2.25;;;1.50;;
63434;SDS011;68814;50.872;5.306;2023-04-30T13:40:22;1.60;;;1.40;;
63434;SDS011;68814;50.872;5.306;2023-04-30T13:42:47;3.90;;;1.35;;
63434;SDS011;68814;50.872;5.306;2023-04-30T13:45:13;3.28;;;1.38;;
63434;SDS011;68814;50.872;5.306;2023-04-30T13:47:39;1.05;;;0.95;;
63434;SDS011;68814;50.872;5.306;2023-04-30T13:50:05;1.25;;;0.95;;
63434;SDS011;68814;50.872;5.306;2023-04-30T13:52:32;3.40;;;0.70;;
63434;SDS011;68814;50.872;5.306;2023-04-30T13:54:58;1.85;;;0.82;;
63434;SDS011;68814;50.872;5.306;2023-04-30T13:57:24;1.08;;;0.80;;
63434;SDS011;68814;50.872;5.306;2023-04-30T13:59:50;1.88;;;0.80;;
63434;SDS011;68814;50.872;5.306;2023-04-30T14:02:16;1.17;;;0.75;;
63434;SDS011;68814;50.872;5.306;2023-04-30T14:04:42;2.10;;;1.30;;
63434;SDS011;68814;50.872;5.306;2023-04-30T14:07:08;1.02;;;0.93;;
63434;SDS011;68814;50.872;5.306;2023-04-30T14:09:33;1.92;;;0.93;;
63434;SDS011;68814;50.872;5.306;2023-04-30T14:12:00;1.55;;;0.95;;
63434;SDS011;68814;50.872;5.306;2023-04-30T14:14:28;2.45;;;0.80;;
63434;SDS011;68814;50.872;5.306;2023-04-30T14:16:54;0.70;;;0.70;;
63434;SDS011;68814;50.872;5.306;2023-04-30T14:19:20;1.02;;;0.90;;
63434;SDS011;68814;50.872;5.306;2023-04-30T14:21:46;1.25;;;0.80;;
63434;SDS011;68814;50.872;5.306;2023-04-30T14:24:12;1.75;;;1.10;;
63434;SDS011;68814;50.872;5.306;2023-04-30T14:26:39;2.22;;;0.80;;
63434;SDS011;68814;50.872;5.306;2023-04-30T14:29:06;2.03;;;1.00;;
63434;SDS011;68814;50.872;5.306;2023-04-30T14:31:32;1.17;;;0.82;;
63434;SDS011;68814;50.872;5.306;2023-04-30T14:33:58;1.48;;;1.00;;
63434;SDS011;68814;50.872;5.306;2023-04-30T14:36:24;1.50;;;0.70;;
63434;SDS011;68814;50.872;5.306;2023-04-30T14:38:51;1.15;;;0.70;;
63434;SDS011;68814;50.872;5.306;2023-04-30T14:41:17;1.85;;;0.73;;
63434;SDS011;68814;50.872;5.306;2023-04-30T14:43:43;1.00;;;0.90;;
63434;SDS011;68814;50.872;5.306;2023-04-30T14:46:08;2.20;;;0.93;;
63434;SDS011;68814;50.872;5.306;2023-04-30T14:48:38;1.63;;;0.63;;
63434;SDS011;68814;50.872;5.306;2023-04-30T14:51:03;1.63;;;0.65;;
63434;SDS011;68814;50.872;5.306;2023-04-30T14:53:29;1.98;;;0.85;;
63434;SDS011;68814;50.872;5.306;2023-04-30T14:55:55;1.65;;;0.90;;
63434;SDS011;68814;50.872;5.306;2023-04-30T14:58:21;1.38;;;0.80;;
63434;SDS011;68814;50.872;5.306;2023-04-30T15:00:46;0.98;;;0.75;;
63434;SDS011;68814;50.872;5.306;2023-04-30T15:03:13;2.55;;;0.88;;
63434;SDS011;68814;50.872;5.306;2023-04-30T15:05:39;1.00;;;0.90;;
63434;SDS011;68814;50.872;5.306;2023-04-30T15:08:05;1.25;;;0.82;;
63434;SDS011;68814;50.872;5.306;2023-04-30T15:10:31;0.80;;;0.60;;
63434;SDS011;68814;50.872;5.306;2023-04-30T15:12:58;1.85;;;1.20;;
63434;SDS011;68814;50.872;5.306;2023-04-30T15:15:27;1.35;;;0.95;;
63434;SDS011;68814;50.872;5.306;2023-04-30T15:17:59;1.17;;;0.90;;
63434;SDS011;68814;50.872;5.306;2023-04-30T15:20:28;1.20;;;0.93;;
63434;SDS011;68814;50.872;5.306;2023-04-30T15:22:57;1.08;;;0.63;;
63434;SDS011;68814;50.872;5.306;2023-04-30T15:25:23;2.28;;;0.60;;
63434;SDS011;68814;50.872;5.306;2023-04-30T15:27:49;1.25;;;0.80;;